首页
METAR-TAF:

METAR-TAF

机场 :

开罗, 埃及

開羅國際機場

纬度: 30-08N, 经度: 031-24E, 海拔: 64米

当前天气观测

该预报发布于33分钟前的21:30 UTC
风速4节,风向
温度 17°C
湿度 59%
气压 1017 hPa
能见度10公里或以上
1500米以下无云,无积雨云

METAR: HECA 172130Z 18004KT CAVOK 17/09 Q1017 NOSIG

时间: 00:03 (22:03 UTC)

预报

该预报发布于5小时和3分钟前的17:00 UTC
预报有效从17日的 18点(UTC)到 18日的 24点(UTC)
风速5节,风向西转西南
能见度10公里或以上
散云层高于2500英尺
短暂存在
从 17日的 22点(UTC)到 18日的 10点(UTC)
风速3节,风向多变
能見度: 6000
短暂存在
从 18日的 00点(UTC)到 18日的 08点(UTC)
能見度: 3000
短暂存在
从 18日的 11点(UTC)到 18日的 20点(UTC)
风速15节,风向西,有时为25节阵风
能見度: 2000
扬沙
短暂存在
从 18日的 20点(UTC)到 18日的 22点(UTC)
能見度: 5000
小雨

TAF: HECA 171700Z 1718/1824 25005KT 9999 SCT025 TEMPO 1722/1810 VRB03KT 6000 NSC TEMPO 1800/1808 3000 HZ TEMPO 1811/1820 28015G25KT 2000 SA TEMPO 1820/1822 5000 -RA

超过4000个机场的气象观测和天气预报(METAR&TAF报告)。

可查询的气象台以黄色和红色小点在地图上表示。

将鼠标移到小点上方,可查看气象台名称。

然后点击查看天气观测和预报。

如需切换地图:点击带黑十字的绿色按钮放大地图;点击带横线的绿色按钮缩小地图;或者点击绿色箭头查看邻近地区的地图。


METAR-TAF: